LOWS Airport Information

Runway Information
Runway 16 Length 9022 ft width 148 ft
Elevation 1411 ft Threshold 656 ft Heading 157
Runway 34 Length 9022 ft Width 148 ft
Elevation 1411 ft Threshold 787 ft Heading 337
Airport Frequencies
Type APP Name APP Frequency 123.725 MHZ
Type ATIS Name ATIS Frequency 125.725 MHZ
Type GND Name GND Frequency 121.75 MHZ
Type TWR Name TWR Frequency 118.1 MHZ
Airport Navaids
Type VOR-DME Name Salzburg Frequency 113800 KHZ
Type NDB Name Salzburg Frequency 382 KHZ
Type NDB Name Salzburg Frequency 410 KHZ
Type NDB Name Salzburg Frequency 356 KHZ
Airport Weather Information & NOTAM
ADDS - METARS form results

(2132 UTC 17 December 2017)
 
METAR text: LOWS 172120Z 28010KT 9999 FEW010 SCT027 BKN036 01/M04 Q1025 R15/590295 TEMPO 4000 -SHSN
Conditions at: LOWS (SALZBURG AIRPORT, AT) observed 2120 UTC 17 December 2017
Temperature: 1.0°C (34°F)
Dewpoint: -4.0°C (25°F) [RH = 69%]
Pressure (altimeter): 30.27 inches Hg (1025.0 mb)
Winds: from the W (280 degrees) at 12 MPH (10 knots; 5.2 m/s)
Visibility: 6 or more miles (10+ km)
Ceiling: 3600 feet AGL
Clouds: few clouds at 1000 feet AGL
scattered clouds at 2700 feet AGL
broken clouds at 3600 feet AGL
Weather: no significant weather observed at this time

METAR text: LOWS 172050Z 28009KT 9999 FEW010 SCT028 BKN050 00/M03 Q1025 R15/590295 TEMPO 4000 -SHSN
Conditions at: LOWS (SALZBURG AIRPORT, AT) observed 2050 UTC 17 December 2017
Temperature: 0.0°C (32°F)
Dewpoint: -3.0°C (27°F) [RH = 80%]
Pressure (altimeter): 30.27 inches Hg (1025.0 mb)
Winds: from the W (280 degrees) at 10 MPH (9 knots; 4.7 m/s)
Visibility: 6 or more miles (10+ km)
Ceiling: 5000 feet AGL
Clouds: few clouds at 1000 feet AGL
scattered clouds at 2800 feet AGL
broken clouds at 5000 feet AGL
Weather: no significant weather observed at this time